Terminal Aerodrome Forecast
Issued by NWS

Current Version | Previous Version | Text Only | Print | Product List | Glossary On
Versions: 1 2 3 4 5 6 7 8 9 10 11 12 13 14 15 16 17 18 19 20 21 22 23 24
000
FTUS46 KMFR 220541
TAFOTH
TAF
KOTH 220541Z 2206/2306 33005KT 5SM BR OVC004
     FM221600 34007KT P6SM OVC010
     FM221800 33009KT P6SM OVC012
     FM222100 33012KT P6SM OVC025
     FM230300 34005KT P6SM OVC005=

USA.gov is the U.S. government's official web portal to all federal, state and local government web resources and services.